Stormwatcher's Retreat Logo




                  Temp     Hi    Low   Out    Dew  Wind  Wind   Wind    Hi    Hi   Wind   Heat    THW   THSW                Rain  Solar   Solar Hi Solar   UV    UV    Hi     Heat    Cool    In     In    In     In     In   In Air          Wind  Wind    ISS   Arc.
  Date    Time     Out   Temp   Temp   Hum    Pt. Speed   Dir    Run Speed   Dir  Chill  Index  Index  Index   Bar    Rain  Rate   Rad.  Energy    Rad.  Index  Dose   UV     D-D     D-D    Temp   Hum    Dew   Heat    EMC Density     ET   Samp   Tx   Recept  Int.
------------------------------------------------------------------------------------------------------------------------------------------------------------------------------------------------------------------------------------------------------------------------
12/14/19 12:10a   44.8   44.9   44.8    68   34.9   1.0    SE   0.17   3.0    SE   44.8   44.2   44.2   40.9  30.082  0.00  0.00     0     0.00      0     0.0  0.00   0.0   0.140   0.000   69.0    50   49.6   67.6   9.27  .0746    0.000   212    5    100.0   10 
12/14/19 12:20a   44.9   44.9   44.8    68   35.0   1.0   SSE   0.17   3.0   SSE   44.9   44.3   44.3   41.0  30.082  0.00  0.00     0     0.00      0     0.0  0.00   0.0   0.140   0.000   68.9    50   49.5   67.5   9.27  .0746    0.000   211    5    100.0   10 
12/14/19 12:30a   45.0   45.0   44.8    68   35.1   1.0    SE   0.17   3.0    SE   45.0   44.4   44.4   41.2  30.081  0.00  0.00     0     0.00      0     0.0  0.00   0.0   0.139   0.000   68.8    50   49.4   67.4   9.27  .0746    0.000   212    5    100.0   10 
12/14/19 12:40a   45.0   45.0   44.9    68   35.1   1.0    SE   0.17   3.0    SE   45.0   44.4   44.4   41.2  30.081  0.00  0.00     0     0.00      0     0.0  0.00   0.0   0.139   0.000   68.8    50   49.4   67.4   9.27  .0746    0.000   213    5    100.0   10 
12/14/19 12:50a   44.9   45.0   44.9    68   35.0   1.0    SE   0.17   4.0   SSE   44.9   44.3   44.3   41.0  30.082  0.00  0.00     0     0.00      0     0.0  0.00   0.0   0.140   0.000   68.7    49   48.8   67.2   9.08  .0746    0.000   213    5    100.0   10 
12/14/19  1:00a   45.0   45.0   44.9    68   35.1   1.0   SSE   0.17   5.0   SSE   45.0   44.4   44.4   41.2  30.081  0.00  0.00     0     0.00      0     0.0  0.00   0.0   0.139   0.000   68.6    49   48.7   67.1   9.08  .0747    0.001   211    5    100.0   10 
12/14/19  1:10a   45.2   45.2   44.9    68   35.3   1.0   SSE   0.17   4.0   SSE   45.2   44.6   44.6   41.4  30.078  0.00  0.00     0     0.00      0     0.0  0.00   0.0   0.137   0.000   68.6    49   48.7   67.1   9.08  .0747    0.000   212    5    100.0   10 
12/14/19  1:20a   44.8   45.2   44.8    68   34.9   1.0   SSE   0.17   4.0   SSE   44.8   44.2   44.2   40.9  30.077  0.00  0.00     0     0.00      0     0.0  0.00   0.0   0.140   0.000   68.5    49   48.6   67.1   9.08  .0747    0.000   213    5    100.0   10 
12/14/19  1:30a   44.9   44.9   44.8    68   35.0   2.0     S   0.33   4.0     S   44.9   44.3   44.3   41.0  30.079  0.00  0.00     0     0.00      0     0.0  0.00   0.0   0.140   0.000   68.4    49   48.5   67.0   9.08  .0747    0.000   212    5    100.0   10 
12/14/19  1:40a   45.4   45.4   44.9    69   35.8   2.0   SSE   0.33   5.0   SSE   45.4   44.9   44.9   41.7  30.078  0.00  0.00     0     0.00      0     0.0  0.00   0.0   0.136   0.000   68.4    49   48.5   67.0   9.08  .0747    0.000   214    5    100.0   10 
12/14/19  1:50a   45.5   45.6   45.4    69   35.9   2.0     S   0.33   5.0   SSW   45.5   45.0   45.0   41.8  30.074  0.00  0.00     0     0.00      0     0.0  0.00   0.0   0.135   0.000   68.3    49   48.4   66.9   9.08  .0747    0.000   212    5    100.0   10 
12/14/19  2:00a   45.8   45.9   45.4    68   35.8   2.0     S   0.33   4.0    SW   45.8   45.2   45.2   42.0  30.075  0.00  0.00     0     0.00      0     0.0  0.00   0.0   0.133   0.000   68.2    49   48.3   66.8   9.09  .0747    0.001   213    5    100.0   10 
12/14/19  2:10a   45.2   45.8   45.1    68   35.3   2.0    SE   0.33   7.0   SSE   45.2   44.6   44.6   41.4  30.073  0.00  0.00     0     0.00      0     0.0  0.00   0.0   0.137   0.000   68.2    49   48.3   66.8   9.09  .0747    0.000   212    5    100.0   10 
12/14/19  2:20a   45.6   45.6   45.2    68   35.6   1.0     S   0.17   4.0     S   45.6   45.0   45.0   41.8  30.077  0.00  0.00     0     0.00      0     0.0  0.00   0.0   0.135   0.000   68.0    49   48.1   66.6   9.09  .0748    0.000   211    5    100.0   10 
12/14/19  2:30a   45.5   45.8   45.5    68   35.5   2.0     S   0.33   5.0   SSW   45.5   44.9   44.9   41.7  30.075  0.00  0.00     0     0.00      0     0.0  0.00   0.0   0.135   0.000   68.0    49   48.1   66.6   9.09  .0747    0.000   212    5    100.0   10 
12/14/19  2:40a   45.0   45.5   45.0    68   35.1   2.0     S   0.33   5.0   SSW   45.0   44.4   44.4   41.2  30.075  0.00  0.00     0     0.00      0     0.0  0.00   0.0   0.139   0.000   67.9    49   48.0   66.5   9.09  .0748    0.000   213    5    100.0   10 
12/14/19  2:50a   44.6   45.0   44.6    68   34.7   3.0   SSW   0.50   5.0     S   43.6   44.0   43.0   39.7  30.073  0.00  0.00     0     0.00      0     0.0  0.00   0.0   0.142   0.000   67.9    49   48.0   66.5   9.09  .0748    0.000   212    5    100.0   10 
12/14/19  3:00a   44.6   45.0   44.6    68   34.7   2.0   SSW   0.33   5.0   SSW   44.6   44.0   44.0   40.7  30.074  0.00  0.00     0     0.00      0     0.0  0.00   0.0   0.142   0.000   67.8    49   47.9   66.4   9.09  .0748    0.001   211    5    100.0   10 
12/14/19  3:10a   45.0   45.0   44.6    68   35.1   2.0     S   0.33   5.0   SSE   45.0   44.4   44.4   41.2  30.075  0.00  0.00     0     0.00      0     0.0  0.00   0.0   0.139   0.000   67.7    49   47.8   66.3   9.10  .0748    0.000   214    5    100.0   10 
12/14/19  3:20a   45.3   45.4   45.0    68   35.4   2.0     S   0.33   4.0     S   45.3   44.7   44.7   41.5  30.075  0.00  0.00     0     0.00      0     0.0  0.00   0.0   0.137   0.000   67.7    49   47.8   66.3   9.10  .0748    0.000   213    5    100.0   10 
12/14/19  3:30a   45.2   45.4   45.2    68   35.3   2.0     S   0.33   4.0     S   45.2   44.6   44.6   41.4  30.074  0.00  0.00     0     0.00      0     0.0  0.00   0.0   0.137   0.000   67.6    49   47.8   66.2   9.10  .0748    0.000   212    5    100.0   10 
12/14/19  3:40a   45.4   45.4   45.1    68   35.5   2.0     S   0.33   4.0   SSE   45.4   44.8   44.8   41.6  30.074  0.00  0.00     0     0.00      0     0.0  0.00   0.0   0.136   0.000   67.5    49   47.7   66.1   9.10  .0748    0.000   214    5    100.0   10 
12/14/19  3:50a   45.7   45.7   45.4    68   35.7   2.0     S   0.33   4.0   SSE   45.7   45.1   45.1   41.9  30.074  0.00  0.00     0     0.00      0     0.0  0.00   0.0   0.134   0.000   67.5    49   47.7   66.1   9.10  .0748    0.000   213    5    100.0   10 
12/14/19  4:00a   46.0   46.1   45.6    68   36.0   2.0     S   0.33   5.0   SSW   46.0   45.4   45.4   42.2  30.072  0.00  0.00     0     0.00      0     0.0  0.00   0.0   0.132   0.000   67.4    49   47.6   65.9   9.10  .0748    0.001   212    5    100.0   10 
12/14/19  4:10a   46.1   46.1   45.8    68   36.1   2.0   SSW   0.33   4.0   SSW   46.1   45.5   45.5   42.3  30.072  0.01  0.00     0     0.00      0     0.0  0.00   0.0   0.131   0.000   67.4    49   47.6   65.9   9.10  .0748    0.000   210    5    100.0   10 
12/14/19  4:20a   46.0   46.2   46.0    68   36.0   2.0     S   0.33   4.0     S   46.0   45.4   45.4   42.2  30.074  0.00  0.00     0     0.00      0     0.0  0.00   0.0   0.132   0.000   67.3    49   47.5   65.8   9.10  .0749    0.000   212    5    100.0   10 
12/14/19  4:30a   45.9   46.0   45.9    68   35.9   2.0     S   0.33   6.0   SSE   45.9   45.3   45.3   42.1  30.072  0.00  0.00     0     0.00      0     0.0  0.00   0.0   0.133   0.000   67.3    49   47.5   65.8   9.10  .0749    0.000   210    5    100.0   10 
12/14/19  4:40a   45.9   46.1   45.9    68   35.9   2.0     S   0.33   5.0   SSE   45.9   45.3   45.3   42.1  30.071  0.01  0.00     0     0.00      0     0.0  0.00   0.0   0.133   0.000   67.1    49   47.3   65.6   9.11  .0749    0.000   214    5    100.0   10 
12/14/19  4:50a   45.4   45.9   45.4    67   35.1   2.0     S   0.33   7.0    SE   45.4   44.8   44.8   41.6  30.070  0.00  0.00     0     0.00      0     0.0  0.00   0.0   0.136   0.000   67.1    49   47.3   65.6   9.11  .0749    0.000   211    5    100.0   10 
12/14/19  5:00a   45.0   45.4   45.0    67   34.7   2.0     S   0.33   8.0   SSE   45.0   44.4   44.4   41.1  30.066  0.01  0.00     0     0.00      0     0.0  0.00   0.0   0.139   0.000   67.1    49   47.3   65.6   9.11  .0749    0.001   213    5    100.0   10 
12/14/19  5:10a   45.5   45.5   45.1    68   35.5   2.0   SSE   0.33   5.0    SE   45.5   44.9   44.9   41.7  30.064  0.00  0.00     0     0.00      0     0.0  0.00   0.0   0.135   0.000   67.0    49   47.2   65.5   9.11  .0749    0.000   212    5    100.0   10 
12/14/19  5:20a   45.6   45.6   45.4    68   35.6   2.0    SE   0.33   5.0   SSE   45.6   45.0   45.0   41.8  30.063  0.00  0.00     0     0.00      0     0.0  0.00   0.0   0.135   0.000   67.0    49   47.2   65.5   9.11  .0749    0.000   210    5    100.0   10 
12/14/19  5:30a   45.6   45.6   45.5    67   35.3   1.0    SE   0.17   4.0     S   45.6   45.0   45.0   41.8  30.061  0.00  0.00     0     0.00      0     0.0  0.00   0.0   0.135   0.000   67.2    49   47.4   65.7   9.11  .0748    0.000   211    5    100.0   10 
12/14/19  5:40a   45.2   45.6   45.2    67   34.9   2.0     S   0.33   5.0     S   45.2   44.6   44.6   41.3  30.064  0.00  0.00     0     0.00      0     0.0  0.00   0.0   0.137   0.000   67.4    49   47.6   65.9   9.10  .0748    0.000   212    5    100.0   10 
12/14/19  5:50a   45.1   45.2   45.1    67   34.8   1.0   SSE   0.17   4.0   ESE   45.1   44.5   44.5   41.2  30.064  0.00  0.00     0     0.00      0     0.0  0.00   0.0   0.138   0.000   67.6    49   47.8   66.2   9.10  .0748    0.000   211    5    100.0   10 
12/14/19  6:00a   45.4   45.4   45.0    67   35.1   2.0   SSE   0.33   5.0     S   45.4   44.8   44.8   41.6  30.065  0.00  0.00     0     0.00      0     0.0  0.00   0.0   0.136   0.000   67.7    49   47.8   66.3   9.10  .0748    0.001   212    5    100.0   10 
12/14/19  6:10a   45.4   45.5   45.3    67   35.1   2.0   SSE   0.33   4.0   SSW   45.4   44.8   44.8   41.6  30.066  0.00  0.00     0     0.00      0     0.0  0.00   0.0   0.136   0.000   67.8    50   48.5   66.5   9.29  .0747    0.000   211    5    100.0   10 
12/14/19  6:20a   45.4   45.4   45.2    67   35.1   2.0   SSE   0.33   6.0   SSW   45.4   44.8   44.8   41.6  30.065  0.00  0.00     0     0.00      0     0.0  0.00   0.0   0.136   0.000   67.8    50   48.5   66.5   9.29  .0747    0.000   213    5    100.0   10 
12/14/19  6:30a   45.6   45.7   45.4    67   35.3   2.0    SE   0.33   6.0   SSE   45.6   45.0   45.0   41.8  30.064  0.00  0.00     0     0.00      0     0.0  0.00   0.0   0.135   0.000   67.8    50   48.5   66.5   9.29  .0747    0.000   213    5    100.0   10 
12/14/19  6:40a   45.5   45.6   45.4    67   35.2   2.0   SSE   0.33   6.0   ESE   45.5   44.9   44.9   41.7  30.059  0.00  0.00     0     0.00      0     0.0  0.00   0.0   0.135   0.000   68.0    51   49.2   66.8   9.49  .0747    0.000   212    5    100.0   10 
12/14/19  6:50a   45.3   45.5   45.3    67   35.0   2.0    SE   0.33   7.0   SSE   45.3   44.7   44.7   41.4  30.057  0.00  0.00     0     0.00      0     0.0  0.00   0.0   0.137   0.000   68.1    51   49.3   66.9   9.49  .0746    0.000   213    5    100.0   10 
12/14/19  7:00a   45.0   45.4   45.0    67   34.7   2.0   SSW   0.33   5.0   SSE   45.0   44.4   44.4   41.1  30.058  0.00  0.00     0     0.00      0     0.0  0.00   0.0   0.139   0.000   68.1    51   49.3   66.9   9.49  .0747    0.001   211    5    100.0   10 
12/14/19  7:10a   45.0   45.0   44.9    67   34.7   2.0    SE   0.33   7.0    SE   45.0   44.4   44.4   41.1  30.055  0.00  0.00     0     0.00      0     0.0  0.00   0.0   0.139   0.000   68.1    51   49.3   66.9   9.49  .0746    0.000   213    5    100.0   10 
12/14/19  7:20a   45.0   45.2   45.0    67   34.7   2.0   SSW   0.33   4.0   ESE   45.0   44.4   44.4   41.1  30.055  0.00  0.00     0     0.00      0     0.0  0.00   0.0   0.139   0.000   68.0    51   49.2   66.8   9.49  .0747    0.000   212    5    100.0   10 
12/14/19  7:30a   44.8   45.0   44.8    67   34.5   2.0     S   0.33   4.0     S   44.8   44.2   44.2   40.9  30.052  0.00  0.00     0     0.00      0     0.0  0.00   0.0   0.140   0.000   68.0    51   49.2   66.8   9.49  .0747    0.000   212    5    100.0   10 
12/14/19  7:40a   44.6   44.9   44.6    67   34.3   1.0     S   0.17   4.0   SSE   44.6   44.0   44.0   40.9  30.049  0.00  0.00     6     0.09      9     0.0  0.00   0.0   0.142   0.000   68.0    51   49.2   66.8   9.49  .0746    0.000   212    5    100.0   10 
12/14/19  7:50a   44.6   44.6   44.6    67   34.3   1.0     S   0.17   4.0     S   44.6   44.0   44.0   41.0  30.051  0.00  0.00    12     0.17     12     0.0  0.00   0.0   0.142   0.000   68.0    51   49.2   66.8   9.49  .0747    0.000   211    5    100.0   10 
12/14/19  8:00a   44.6   44.6   44.5    67   34.3   1.0   SSW   0.17   5.0   SSE   44.6   44.0   44.0   41.1  30.047  0.00  0.00    15     0.22     19     0.0  0.00   0.0   0.142   0.000   67.9    51   49.1   66.7   9.49  .0747    0.001   213    5    100.0   10 
12/14/19  8:10a   45.0   45.0   44.6    68   35.1   2.0   SSW   0.33   5.0   SSE   45.0   44.4   44.4   41.7  30.046  0.00  0.00    24     0.34     28     0.0  0.00   0.0   0.139   0.000   67.8    51   49.0   66.6   9.49  .0747    0.000   211    5    100.0   10 
12/14/19  8:20a   45.2   45.2   45.0    68   35.3   2.0     S   0.33   4.0   SSW   45.2   44.6   44.6   42.1  30.041  0.00  0.00    33     0.47     37     0.0  0.00   0.0   0.137   0.000   67.7    51   48.9   66.5   9.50  .0747    0.000   211    5    100.0   10 
12/14/19  8:30a   45.1   45.2   45.0    67   34.8   2.0    SE   0.33   7.0   SSE   45.1   44.5   44.5   42.2  30.038  0.00  0.00    44     0.63     49     0.0  0.00   0.0   0.138   0.000   67.7    51   48.9   66.5   9.50  .0747    0.000   214    5    100.0   10 
12/14/19  8:40a   45.3   45.4   45.1    67   35.0   2.0   ESE   0.33   7.0    SE   45.3   44.7   44.7   42.6  30.044  0.00  0.00    49     0.70     49     0.0  0.00   0.0   0.137   0.000   67.7    51   48.9   66.5   9.50  .0747    0.000   211    5    100.0   10 
12/14/19  8:50a   45.3   45.3   45.2    67   35.0   2.0    SE   0.33  10.0   ESE   45.3   44.7   44.7   42.6  30.042  0.00  0.00    51     0.73     53     0.0  0.00   0.0   0.137   0.000   67.7    51   48.9   66.5   9.50  .0747    0.000   212    5    100.0   10 
12/14/19  9:00a   45.4   45.4   45.2    67   35.1   2.0    SE   0.33   8.0     E   45.4   44.8   44.8   42.8  30.041  0.00  0.00    53     0.76     53     0.0  0.00   0.0   0.136   0.000   67.8    51   49.0   66.6   9.49  .0747    0.001   213    5    100.0   10 
12/14/19  9:10a   45.5   45.5   45.3    67   35.2   3.0   ESE   0.50   8.0     E   44.6   44.9   44.0   44.0  30.042  0.00  0.00    52     0.75     53     0.0  0.00   0.0   0.135   0.000   67.9    51   49.1   66.7   9.49  .0746    0.000   213    5    100.0   10 
12/14/19  9:20a   45.4   45.5   45.3    67   35.1   2.0   ESE   0.33   7.0   ESE   45.4   44.8   44.8   44.3  30.043  0.00  0.00    40     0.57     47     0.0  0.00   0.0   0.136   0.000   67.9    51   49.1   66.7   9.49  .0746    0.000   212    5    100.0   10 
12/14/19  9:30a   45.2   45.4   45.2    67   34.9   3.0    SE   0.50   9.0    SE   44.2   44.6   43.6   42.9  30.042  0.00  0.00    38     0.54     42     0.0  0.00   0.0   0.137   0.000   67.8    51   49.0   66.6   9.49  .0747    0.000   211    5    100.0   10 
12/14/19  9:40a   45.2   45.2   45.1    67   34.9   4.0   ESE   0.67   8.0   ESE   43.3   44.6   42.7   42.5  30.040  0.00  0.00    49     0.70     58     0.6  0.04   5.0   0.137   0.000   67.8    51   49.0   66.6   9.49  .0747    0.000   213    5    100.0   10 
12/14/19  9:50a   45.3   45.4   45.2    67   35.0   3.0   ESE   0.50   9.0   SSE   44.4   44.7   43.8   44.4  30.044  0.00  0.00    68     0.97     72     5.0  0.36   5.0   0.137   0.000   67.7    51   48.9   66.5   9.50  .0747    0.000   212    5    100.0   10 
12/14/19 10:00a   45.5   45.5   45.3    67   35.2   3.0   ESE   0.50   7.0   ESE   44.6   44.9   44.0   43.6  30.043  0.00  0.00    47     0.67     60     1.0  0.07   5.0   0.135   0.000   67.7    51   48.9   66.5   9.50  .0747    0.002   213    5    100.0   10 
12/14/19 10:10a   45.8   45.8   45.5    67   35.5   3.0   ESE   0.50   8.0   SSE   45.0   45.2   44.4   44.1  30.044  0.00  0.00    50     0.72     56     0.0  0.00   0.0   0.133   0.000   67.7    51   48.9   66.5   9.50  .0747    0.000   213    5    100.0   10 
12/14/19 10:20a   45.8   45.8   45.7    67   35.5   3.0   ESE   0.50   7.0    SE   45.0   45.2   44.4   44.7  30.041  0.00  0.00    65     0.93     70     5.0  0.36   5.0   0.133   0.000   67.7    51   48.9   66.5   9.50  .0747    0.000   212    5    100.0   10 
12/14/19 10:30a   45.8   45.8   45.7    67   35.5   3.0    SE   0.50  10.0    SE   45.0   45.2   44.4   44.5  30.041  0.00  0.00    61     0.87     69     5.0  0.36   5.0   0.133   0.000   67.7    51   48.9   66.5   9.50  .0747    0.000   213    5    100.0   10 
12/14/19 10:40a   46.0   46.0   45.8    67   35.7   2.0   ESE   0.33   7.0   ESE   46.0   45.4   45.4   46.8  30.035  0.00  0.00    96     1.38    125     5.0  0.36   5.0   0.132   0.000   67.7    51   48.9   66.5   9.50  .0747    0.000   213    5    100.0   10 
12/14/19 10:50a   46.7   46.7   46.0    67   36.3   3.0   SSE   0.50   8.0    SE   46.0   46.1   45.4   50.9  30.033  0.00  0.00   217     3.11    306     5.0  0.36   5.0   0.127   0.000   67.8    51   49.0   66.6   9.49  .0746    0.000   211    5    100.0   10 
12/14/19 11:00a   47.5   47.5   46.7    67   37.1   4.0    SE   0.67   8.0   ESE   46.0   46.9   45.4   52.6  30.028  0.00  0.00   283     4.06    367     5.0  0.36   5.0   0.122   0.000   67.9    51   49.1   66.7   9.49  .0746    0.003   212    5    100.0   10 
12/14/19 11:10a   47.4   47.6   47.4    66   36.6   4.0   ESE   0.67  10.0   ESE   45.9   46.7   45.2   48.7  30.021  0.00  0.00   158     2.26    199     5.0  0.36   5.0   0.122   0.000   67.9    51   49.1   66.7   9.49  .0746    0.000   211    5    100.0   10 
12/14/19 11:20a   47.3   47.4   47.3    66   36.5   4.0    SE   0.67   9.0   ESE   45.8   46.6   45.1   47.7  30.016  0.00  0.00   133     1.91    135     5.0  0.36   5.0   0.123   0.000   67.9    51   49.1   66.7   9.49  .0746    0.000   213    5    100.0   10 
12/14/19 11:30a   47.3   47.3   47.2    66   36.5   4.0   ESE   0.67  10.0   ESE   45.8   46.6   45.1   47.5  30.012  0.00  0.00   130     1.86    135     5.0  0.36   5.0   0.123   0.000   67.9    51   49.1   66.7   9.49  .0746    0.000   212    5    100.0   10 
12/14/19 11:40a   47.2   47.3   47.2    66   36.4   3.0    SE   0.50   8.0     S   46.5   46.5   45.8   47.7  30.008  0.00  0.00   115     1.65    120     5.0  0.36   5.0   0.124   0.000   67.9    51   49.1   66.7   9.49  .0746    0.000   213    5    100.0   10 
12/14/19 11:50a   47.3   47.3   47.2    66   36.5   3.0   ESE   0.50   9.0   ESE   46.6   46.6   45.9   47.6  30.005  0.00  0.00   110     1.58    114     5.0  0.36   5.0   0.123   0.000   68.0    50   48.7   66.7   9.29  .0746    0.000   213    5    100.0   10 
12/14/19 12:00p   47.4   47.4   47.3    66   36.6   3.0   ESE   0.50   9.0   ESE   46.7   46.7   46.0   48.1  30.001  0.00  0.00   123     1.76    128     5.0  0.36   5.0   0.122   0.000   68.0    50   48.7   66.7   9.29  .0745    0.003   212    5    100.0   10 
12/14/19 12:10p   47.6   47.6   47.4    65   36.4   3.0   SSE   0.50   6.0   SSE   47.0   46.9   46.3   48.5  29.998  0.00  0.00   125     1.79    128     5.0  0.36   5.0   0.121   0.000   68.2    50   48.8   66.9   9.29  .0745    0.000   212    5    100.0   10 
12/14/19 12:20p   47.6   47.6   47.5    65   36.4   2.0   ESE   0.33   7.0   ESE   47.6   46.9   46.9   49.1  29.995  0.00  0.00   126     1.81    132     5.0  0.36   5.0   0.121   0.000   68.3    50   48.9   67.0   9.28  .0745    0.000   212    5    100.0   10 
12/14/19 12:30p   47.5   47.6   47.5    65   36.3   3.0    SE   0.50  10.0     E   46.8   46.8   46.1   47.5  29.992  0.00  0.00   102     1.46    109     5.0  0.36   5.0   0.122   0.000   68.3    50   48.9   67.0   9.28  .0745    0.000   213    5    100.0   10 
12/14/19 12:40p   47.3   47.6   47.2    65   36.1   4.0   ESE   0.67  10.0   ESE   45.8   46.6   45.1   46.0  29.987  0.00  0.00    89     1.28     95     5.0  0.36   5.0   0.123   0.000   68.3    50   48.9   67.0   9.28  .0745    0.000   209    5    100.0   10 
12/14/19 12:50p   47.2   47.3   47.2    65   36.0   5.0   ESE   0.83  11.0    SE   44.9   46.5   44.2   44.9  29.981  0.00  0.00    83     1.19     84     5.0  0.36   5.0   0.124   0.000   68.2    51   49.4   67.0   9.49  .0744    0.000   213    5    100.0   10 
12/14/19  1:00p   47.1   47.2   47.1    64   35.5   4.0   ESE   0.67   9.0     E   45.5   46.4   44.8   45.3  29.978  0.00  0.00    78     1.12     81     5.0  0.36   5.0   0.124   0.000   68.2    51   49.4   67.0   9.49  .0744    0.003   212    5    100.0   10 
12/14/19  1:10p   47.0   47.1   47.0    65   35.8   5.0   ESE   0.83  12.0   ESE   44.7   46.3   44.0   44.5  29.976  0.00  0.00    77     1.10     79     5.0  0.36   5.0   0.125   0.000   68.2    51   49.4   67.0   9.49  .0744    0.000   212    5    100.0   10 
12/14/19  1:20p   47.1   47.1   47.0    64   35.5   5.0   ESE   0.83  11.0   SSE   44.8   46.4   44.1   44.4  29.972  0.00  0.00    71     1.02     76     5.0  0.36   5.0   0.124   0.000   68.1    51   49.3   66.9   9.49  .0744    0.000   211    5    100.0   10 
12/14/19  1:30p   47.1   47.1   47.0    64   35.5   5.0    SE   0.83  12.0    SE   44.8   46.4   44.1   45.1  29.969  0.00  0.00    89     1.28    100     5.0  0.36   5.0   0.124   0.000   68.1    51   49.3   66.9   9.49  .0744    0.000   213    5    100.0   10 
12/14/19  1:40p   47.2   47.2   47.1    64   35.6   4.0   ESE   0.67   9.0    SE   45.6   46.5   44.9   45.5  29.969  0.00  0.00    78     1.12     98     5.0  0.36   5.0   0.124   0.000   68.0    51   49.2   66.8   9.49  .0744    0.000   213    5    100.0   10 
12/14/19  1:50p   47.1   47.2   47.1    64   35.5   4.0   ESE   0.67  11.0     S   45.5   46.4   44.8   44.5  29.971  0.00  0.00    54     0.77     63     2.5  0.18   5.0   0.124   0.000   68.0    51   49.2   66.8   9.49  .0745    0.000   213    5    100.0   10 
12/14/19  2:00p   47.1   47.1   47.1    64   35.5   4.0   ESE   0.67  10.0     S   45.5   46.4   44.8   44.2  29.970  0.00  0.00    46     0.66     49     0.0  0.00   0.0   0.124   0.000   68.0    51   49.2   66.8   9.49  .0744    0.002   210    5    100.0   10 
12/14/19  2:10p   47.1   47.1   47.0    64   35.5   4.0   ESE   0.67   9.0   ESE   45.5   46.4   44.8   44.3  29.968  0.00  0.00    48     0.69     54     0.0  0.00   0.0   0.124   0.000   68.1    51   49.3   66.9   9.49  .0744    0.000   212    5    100.0   10 
12/14/19  2:20p   47.0   47.1   46.9    64   35.4   4.0   ESE   0.67  11.0   ESE   45.4   46.3   44.7   44.7  29.967  0.00  0.00    60     0.86     62     5.0  0.36   5.0   0.125   0.000   68.2    51   49.4   67.0   9.49  .0744    0.000   213    5    100.0   10 
12/14/19  2:30p   47.0   47.0   47.0    64   35.4   4.0   ESE   0.67  11.0    SE   45.4   46.3   44.7   44.5  29.966  0.00  0.00    54     0.77     56     0.6  0.04   5.0   0.125   0.000   68.4    50   49.0   67.1   9.28  .0744    0.000   213    5    100.0   10 
12/14/19  2:40p   46.9   47.0   46.9    64   35.4   4.0   ESE   0.67  11.0    SE   45.3   46.2   44.6   44.6  29.965  0.00  0.00    56     0.80     58     3.3  0.24   5.0   0.126   0.000   68.5    50   49.1   67.1   9.28  .0744    0.000   212    5    100.0   10 
12/14/19  2:50p   46.8   46.9   46.8    64   35.3   4.0   ESE   0.67   9.0    SE   45.2   46.1   44.5   43.9  29.964  0.00  0.00    42     0.60     49     0.0  0.00   0.0   0.126   0.000   68.6    50   49.2   67.2   9.28  .0743    0.000   213    5    100.0   10 
12/14/19  3:00p   46.8   46.9   46.8    64   35.3   3.0   ESE   0.50   8.0    SE   46.1   46.1   45.4   44.5  29.967  0.00  0.00    35     0.50     35     0.0  0.00   0.0   0.126   0.000   68.7    50   49.3   67.3   9.28  .0743    0.002   214    5    100.0   10 
12/14/19  3:10p   46.7   46.9   46.7    63   34.8   3.0   ESE   0.50   8.0    SE   46.0   46.0   45.3   44.6  29.967  0.00  0.00    38     0.54     40     0.0  0.00   0.0   0.127   0.000   68.7    50   49.3   67.3   9.28  .0743    0.000   212    5    100.0   10 
12/14/19  3:20p   46.8   46.8   46.7    63   34.9   3.0   ESE   0.50   9.0    SE   46.1   46.1   45.4   44.9  29.966  0.00  0.00    41     0.59     42     0.0  0.00   0.0   0.126   0.000   68.7    50   49.3   67.3   9.28  .0743    0.000   212    5    100.0   10 
12/14/19  3:30p   46.8   46.8   46.7    63   34.9   3.0   ESE   0.50   9.0    SE   46.1   46.1   45.4   44.6  29.966  0.00  0.00    34     0.49     40     0.0  0.00   0.0   0.126   0.000   68.7    50   49.3   67.3   9.28  .0743    0.000   214    5    100.0   10 
12/14/19  3:40p   46.7   46.8   46.7    63   34.8   3.0   ESE   0.50   7.0   ESE   46.0   46.0   45.3   44.1  29.963  0.00  0.00    27     0.39     28     0.0  0.00   0.0   0.127   0.000   68.8    50   49.4   67.4   9.27  .0743    0.000   212    5    100.0   10 
12/14/19  3:50p   46.6   46.7   46.6    63   34.7   3.0   ESE   0.50   6.0     E   45.9   45.9   45.2   43.9  29.962  0.00  0.00    24     0.34     26     0.0  0.00   0.0   0.128   0.000   68.8    50   49.4   67.4   9.27  .0743    0.000   210    5    100.0   10 
12/14/19  4:00p   46.5   46.7   46.5    63   34.6   3.0   ESE   0.50   7.0   ESE   45.8   45.8   45.1   42.4  29.962  0.00  0.00    17     0.24     21     0.0  0.00   0.0   0.128   0.000   68.8    50   49.4   67.4   9.27  .0743    0.001   213    5    100.0   10 
12/14/19  4:10p   46.4   46.5   46.4    63   34.5   3.0   ESE   0.50   7.0   ESE   45.6   45.7   44.9   42.1  29.963  0.00  0.00    11     0.16     12     0.0  0.00   0.0   0.129   0.000   68.9    50   49.5   67.5   9.27  .0743    0.000   213    5    100.0   10 
12/14/19  4:20p   46.3   46.4   46.3    63   34.4   3.0   ESE   0.50   7.0   ESE   45.5   45.6   44.8   41.8  29.962  0.00  0.00     6     0.09      9     0.0  0.00   0.0   0.130   0.000   68.9    50   49.5   67.5   9.27  .0743    0.000   213    5    100.0   10 
12/14/19  4:30p   46.3   46.3   46.3    63   34.4   3.0   ESE   0.50   8.0   ESE   45.5   45.6   44.8   41.7  29.964  0.00  0.00     0     0.00      0     0.0  0.00   0.0   0.130   0.000   68.8    50   49.4   67.4   9.27  .0743    0.000   212    5    100.0   10 
12/14/19  4:40p   46.2   46.3   46.2    64   34.7   2.0   ESE   0.33   5.0   SSW   46.2   45.5   45.5   42.4  29.964  0.00  0.00     0     0.00      0     0.0  0.00   0.0   0.131   0.000   68.8    50   49.4   67.4   9.27  .0743    0.000   212    5    100.0   10 
12/14/19  4:50p   46.2   46.3   46.2    64   34.7   1.0   SSE   0.17   4.0     S   46.2   45.5   45.5   42.4  29.967  0.00  0.00     0     0.00      0     0.0  0.00   0.0   0.131   0.000   68.8    50   49.4   67.4   9.27  .0743    0.000   209    5    100.0   10 
12/14/19  5:00p   46.1   46.2   46.1    64   34.6   1.0     S   0.17   4.0     S   46.1   45.4   45.4   42.3  29.966  0.00  0.00     0     0.00      0     0.0  0.00   0.0   0.131   0.000   68.7    50   49.3   67.3   9.28  .0743    0.001   213    5    100.0   10 
12/14/19  5:10p   46.1   46.1   46.1    64   34.6   1.0    SE   0.17   3.0    SE   46.1   45.4   45.4   42.3  29.967  0.00  0.00     0     0.00      0     0.0  0.00   0.0   0.131   0.000   68.7    50   49.3   67.3   9.28  .0743    0.000   211    5    100.0   10 
12/14/19  5:20p   46.0   46.1   46.0    64   34.5   1.0    SE   0.17   4.0    SE   46.0   45.3   45.3   42.2  29.965  0.00  0.00     0     0.00      0     0.0  0.00   0.0   0.132   0.000   68.7    50   49.3   67.3   9.28  .0743    0.000   212    5    100.0   10 
12/14/19  5:30p   45.5   46.0   45.5    64   34.0   2.0   ESE   0.33   6.0   SSE   45.5   44.8   44.8   41.7  29.964  0.00  0.00     0     0.00      0     0.0  0.00   0.0   0.135   0.000   68.8    50   49.4   67.4   9.27  .0743    0.000   213    5    100.0   10 
12/14/19  5:40p   45.1   45.5   45.1    64   33.6   2.0   ESE   0.33   5.0    SE   45.1   44.4   44.4   41.3  29.964  0.00  0.00     0     0.00      0     0.0  0.00   0.0   0.138   0.000   68.8    50   49.4   67.4   9.27  .0743    0.000   212    5    100.0   10 
12/14/19  5:50p   44.8   45.1   44.8    64   33.4   3.0   SSW   0.50   8.0    SE   43.8   44.1   43.1   40.0  29.963  0.00  0.00     0     0.00      0     0.0  0.00   0.0   0.140   0.000   68.9    50   49.5   67.5   9.27  .0743    0.000   214    5    100.0   10 
12/14/19  6:00p   44.7   44.8   44.6    64   33.3   5.0   ESE   0.83  13.0   ESE   42.0   44.0   41.3   38.2  29.964  0.00  0.00     0     0.00      0     0.0  0.00   0.0   0.141   0.000   68.9    50   49.5   67.5   9.27  .0743    0.001   213    5    100.0   10 
12/14/19  6:10p   44.6   44.7   44.6    64   33.2   4.0   ESE   0.67  11.0     E   42.6   43.9   41.9   38.8  29.963  0.00  0.00     0     0.00      0     0.0  0.00   0.0   0.142   0.000   68.9    50   49.5   67.5   9.27  .0743    0.000   212    5    100.0   10 
12/14/19  6:20p   44.5   44.6   44.5    64   33.1   5.0   ESE   0.83  14.0   SSE   41.8   43.8   41.1   38.0  29.963  0.01  0.00     0     0.00      0     0.0  0.00   0.0   0.142   0.000   68.8    50   49.4   67.4   9.27  .0743    0.000   214    5    100.0   10 
12/14/19  6:30p   44.4   44.5   44.3    64   33.0   5.0   ESE   0.83  11.0   ESE   41.6   43.7   40.9   37.7  29.960  0.00  0.00     0     0.00      0     0.0  0.00   0.0   0.143   0.000   68.8    50   49.4   67.4   9.27  .0743    0.000   213    5    100.0   10 
12/14/19  6:40p   44.2   44.3   44.2    64   32.8   7.0   ESE   1.17  13.0   ESE   40.2   43.5   39.5   36.3  29.963  0.00  0.00     0     0.00      0     0.0  0.00   0.0   0.144   0.000   68.8    50   49.4   67.4   9.27  .0743    0.000   211    5    100.0   10 
12/14/19  6:50p   44.1   44.2   44.1    64   32.7   8.0   ESE   1.33  14.0     E   39.5   43.4   38.8   35.8  29.966  0.00  0.00     0     0.00      0     0.0  0.00   0.0   0.145   0.000   68.8    50   49.4   67.4   9.27  .0743    0.000   212    5    100.0   10 
12/14/19  7:00p   44.0   44.1   44.0    64   32.6   8.0   ESE   1.33  15.0   ESE   39.4   43.3   38.7   35.7  29.966  0.00  0.00     0     0.00      0     0.0  0.00   0.0   0.146   0.000   68.8    50   49.4   67.4   9.27  .0743    0.002   212    5    100.0   10 
12/14/19  7:10p   43.9   44.0   43.9    64   32.5   8.0   ESE   1.33  15.0   ESE   39.3   43.2   38.6   35.6  29.968  0.00  0.00     0     0.00      0     0.0  0.00   0.0   0.147   0.000   68.8    50   49.4   67.4   9.27  .0743    0.000   213    5    100.0   10 
12/14/19  7:20p   43.8   43.9   43.8    64   32.4   7.0   ESE   1.17  14.0    SE   39.8   43.1   39.1   35.9  29.969  0.00  0.00     0     0.00      0     0.0  0.00   0.0   0.147   0.000   68.8    50   49.4   67.4   9.27  .0743    0.000   213    5    100.0   10 
12/14/19  7:30p   43.8   43.9   43.8    64   32.4   8.0   ESE   1.33  15.0   ESE   39.2   43.1   38.5   35.5  29.974  0.00  0.00     0     0.00      0     0.0  0.00   0.0   0.147   0.000   68.9    50   49.5   67.5   9.27  .0743    0.000   211    5    100.0   10 
12/14/19  7:40p   43.8   43.8   43.8    64   32.4   8.0   ESE   1.33  13.0   ESE   39.2   43.1   38.5   35.5  29.978  0.00  0.00     0     0.00      0     0.0  0.00   0.0   0.147   0.000   68.9    50   49.5   67.5   9.27  .0743    0.000   213    5    100.0   10 
12/14/19  7:50p   43.8   43.8   43.7    64   32.4   8.0   ESE   1.33  14.0     E   39.2   43.1   38.5   35.5  29.977  0.00  0.00     0     0.00      0     0.0  0.00   0.0   0.147   0.000   68.9    50   49.5   67.5   9.27  .0743    0.000   213    5    100.0   10 
12/14/19  8:00p   43.7   43.8   43.7    64   32.3   7.0   ESE   1.17  12.0   ESE   39.6   43.0   38.9   35.7  29.980  0.00  0.00     0     0.00      0     0.0  0.00   0.0   0.148   0.000   68.9    50   49.5   67.5   9.27  .0743    0.002   210    5    100.0   10 
12/14/19  8:10p   43.7   43.8   43.7    64   32.3   5.0     E   0.83   9.0   ESE   40.8   43.0   40.1   36.9  29.988  0.00  0.00     0     0.00      0     0.0  0.00   0.0   0.148   0.000   68.8    49   48.9   67.3   9.07  .0744    0.000   212    5    100.0   10 
12/14/19  8:20p   43.8   43.8   43.7    64   32.4   4.0     E   0.67  11.0   ENE   41.7   43.1   41.0   37.8  29.992  0.00  0.00     0     0.00      0     0.0  0.00   0.0   0.147   0.000   68.7    49   48.8   67.2   9.08  .0744    0.000   212    5    100.0   10 
12/14/19  8:30p   43.8   43.8   43.7    64   32.4   4.0     E   0.67  11.0     E   41.7   43.1   41.0   37.8  29.993  0.00  0.00     0     0.00      0     0.0  0.00   0.0   0.147   0.000   68.7    49   48.8   67.2   9.08  .0744    0.000   213    5    100.0   10 
12/14/19  8:40p   43.8   43.9   43.8    63   32.0   5.0     E   0.83  14.0    SE   41.0   43.1   40.3   37.1  29.998  0.00  0.00     0     0.00      0     0.0  0.00   0.0   0.147   0.000   68.6    49   48.7   67.1   9.08  .0745    0.000   212    5    100.0   10 
12/14/19  8:50p   43.8   43.9   43.8    63   32.0   4.0     E   0.67  11.0   ENE   41.7   43.1   41.0   37.8  30.003  0.00  0.00     0     0.00      0     0.0  0.00   0.0   0.147   0.000   68.5    49   48.6   67.1   9.08  .0745    0.000   214    5    100.0   10 
12/14/19  9:00p   43.8   43.9   43.8    63   32.0   5.0     E   0.83  11.0   ENE   41.0   43.1   40.3   37.1  30.006  0.00  0.00     0     0.00      0     0.0  0.00   0.0   0.147   0.000   68.4    49   48.5   67.0   9.08  .0745    0.002   211    5    100.0   10 
12/14/19  9:10p   43.7   43.8   43.7    63   31.9   6.0   ENE   1.00  14.0    NE   40.1   43.0   39.4   36.2  30.003  0.00  0.00     0     0.00      0     0.0  0.00   0.0   0.148   0.000   68.4    49   48.5   67.0   9.08  .0745    0.000   211    5    100.0   10 
12/14/19  9:20p   43.4   43.7   43.4    63   31.6   5.0     E   0.83  12.0   ENE   40.5   42.7   39.8   36.6  30.006  0.00  0.00     0     0.00      0     0.0  0.00   0.0   0.150   0.000   68.3    49   48.4   66.9   9.08  .0745    0.000   212    5    100.0   10 
12/14/19  9:30p   43.2   43.5   43.2    63   31.4   7.0     E   1.17  13.0     E   39.0   42.5   38.3   35.1  30.007  0.00  0.00     0     0.00      0     0.0  0.00   0.0   0.151   0.000   68.2    49   48.3   66.8   9.09  .0745    0.000   212    5    100.0   10 
12/14/19  9:40p   43.0   43.2   43.0    63   31.3   5.0   ENE   0.83  13.0   ENE   40.0   42.3   39.3   36.1  30.016  0.00  0.00     0     0.00      0     0.0  0.00   0.0   0.153   0.000   68.1    48   47.7   66.6   8.89  .0746    0.000   209    5    100.0   10 
12/14/19  9:50p   42.9   43.1   42.9    63   31.2   5.0     E   0.83  13.0   ENE   39.9   42.2   39.2   36.0  30.022  0.00  0.00     0     0.00      0     0.0  0.00   0.0   0.153   0.000   68.1    48   47.7   66.6   8.89  .0746    0.000   210    5    100.0   10 
12/14/19 10:00p   42.9   42.9   42.9    63   31.2   7.0   ENE   1.17  13.0     E   38.7   42.2   38.0   34.8  30.028  0.00  0.00     0     0.00      0     0.0  0.00   0.0   0.153   0.000   68.0    48   47.6   66.5   8.89  .0746    0.002   212    5    100.0   10 
12/14/19 10:10p   42.7   42.9   42.7    63   31.0   4.0     E   0.67   9.0   ENE   40.4   42.0   39.7   36.5  30.034  0.00  0.00     0     0.00      0     0.0  0.00   0.0   0.155   0.000   67.9    48   47.5   66.4   8.89  .0747    0.000   211    5    100.0   10 
12/14/19 10:20p   42.6   42.8   42.6    63   30.9   3.0     E   0.50   7.0     E   41.3   41.9   40.6   37.4  30.038  0.00  0.00     0     0.00      0     0.0  0.00   0.0   0.156   0.000   67.9    48   47.5   66.4   8.89  .0747    0.000   210    5    100.0   10 
12/14/19 10:30p   42.2   42.7   42.2    63   30.5   2.0     E   0.33   4.0     E   42.2   41.5   41.5   38.3  30.040  0.00  0.00     0     0.00      0     0.0  0.00   0.0   0.158   0.000   67.8    48   47.4   66.3   8.89  .0747    0.000   213    5    100.0   10 
12/14/19 10:40p   41.8   42.2   41.8    63   30.1   1.0     E   0.17   3.0   ENE   41.8   41.1   41.1   37.9  30.044  0.00  0.00     0     0.00      0     0.0  0.00   0.0   0.161   0.000   67.7    48   47.3   66.2   8.90  .0747    0.000   211    5    100.0   10 
12/14/19 10:50p   41.8   41.8   41.7    64   30.5   0.0     E   0.00   2.0     E   41.8   41.1   41.1   37.9  30.048  0.00  0.00     0     0.00      0     0.0  0.00   0.0   0.161   0.000   67.7    48   47.3   66.2   8.90  .0747    0.000   211    5    100.0   10 
12/14/19 11:00p   41.7   41.8   41.7    64   30.4   1.0     E   0.17   3.0    SE   41.7   41.0   41.0   37.8  30.051  0.00  0.00     0     0.00      0     0.0  0.00   0.0   0.162   0.000   67.6    48   47.2   66.1   8.90  .0748    0.001   213    5    100.0   10 
12/14/19 11:10p   41.1   41.7   41.1    63   29.5   1.0    SE   0.17   5.0   SSE   41.1   40.4   40.4   37.1  30.051  0.00  0.00     0     0.00      0     0.0  0.00   0.0   0.166   0.000   67.5    48   47.1   65.9   8.90  .0748    0.000   211    5    100.0   10 
12/14/19 11:20p   41.1   41.1   41.0    64   29.8   2.0   ESE   0.33   6.0     S   41.0   40.4   40.3   37.0  30.052  0.00  0.00     0     0.00      0     0.0  0.00   0.0   0.166   0.000   67.5    48   47.1   65.9   8.90  .0748    0.000   212    5    100.0   10 
12/14/19 11:30p   41.1   41.2   41.1    64   29.8   3.0   ESE   0.50   7.0    SE   39.6   40.4   38.9   35.6  30.054  0.00  0.00     0     0.00      0     0.0  0.00   0.0   0.166   0.000   67.4    48   47.0   65.8   8.90  .0748    0.000   212    5    100.0   10 
12/14/19 11:40p   41.2   41.2   41.1    64   29.9   3.0   ESE   0.50   6.0   ESE   39.7   40.5   39.0   35.7  30.059  0.00  0.00     0     0.00      0     0.0  0.00   0.0   0.165   0.000   67.3    48   46.9   65.7   8.90  .0748    0.000   211    5    100.0   10 
12/14/19 11:50p   41.3   41.3   41.2    65   30.4   3.0   ESE   0.50   7.0   ESE   39.8   40.6   39.1   35.9  30.061  0.00  0.00     0     0.00      0     0.0  0.00   0.0   0.165   0.000   67.3    48   46.9   65.7   8.90  .0748    0.000   213    5    100.0   10 
12/15/19 12:00a   41.2   41.3   41.2    64   29.9   2.0   ESE   0.33   6.0     E   41.1   40.5   40.4   37.1  30.069  0.00  0.00     0     0.00      0     0.0  0.00   0.0   0.165   0.000   67.2    48   46.8   65.6   8.91  .0749    0.001   213    5    100.0   10 
12/15/19 12:10a   41.1   41.4   41.1    64   29.8   1.0   ENE   0.17   3.0   ENE   41.1   40.4   40.4   37.1  30.072  0.00  0.00     0     0.00      0     0.0  0.00   0.0   0.166   0.000   67.1    48   46.7   65.5   8.91  .0749    0.000   210    5    100.0   10 
12/15/19 12:20a   40.8   41.1   40.8    65   29.9   3.0   ESE   0.50   7.0   ENE   39.3   40.1   38.6   35.3  30.077  0.00  0.00     0     0.00      0     0.0  0.00   0.0   0.168   0.000   67.0    48   46.7   65.4   8.91  .0749    0.000   213    5    100.0   10 
12/15/19 12:30a   40.5   40.8   40.5    65   29.7   2.0   ESE   0.33   4.0     E   40.3   39.8   39.6   36.3  30.082  0.00  0.00     0     0.00      0     0.0  0.00   0.0   0.170   0.000   67.0    48   46.7   65.4   8.91  .0750    0.000   211    5    100.0   10 
12/15/19 12:40a   40.2   40.5   40.2    65   29.4   2.0   ESE   0.33   7.0     E   40.0   39.5   39.3   36.0  30.083  0.00  0.00     0     0.00      0     0.0  0.00   0.0   0.172   0.000   66.9    48   46.6   65.3   8.91  .0750    0.000   214    5    100.0   10 
12/15/19 12:50a   40.5   40.5   40.1    65   29.7   3.0   ESE   0.50   6.0   ESE   39.0   39.8   38.3   35.0  30.085  0.00  0.00     0     0.00      0     0.0  0.00   0.0   0.170   0.000   66.9    48   46.6   65.3   8.91  .0750    0.000   212    5    100.0   10 
12/15/19  1:00a   40.9   40.9   40.5    66   30.4   3.0   ESE   0.50   7.0   ESE   39.4   40.2   38.7   35.5  30.089  0.00  0.00     0     0.00      0     0.0  0.00   0.0   0.167   0.000   66.8    48   46.5   65.2   8.91  .0750    0.001   210    5    100.0   10 
12/15/19  1:10a   40.9   41.0   40.9    65   30.0   3.0   ESE   0.50   7.0   ESE   39.4   40.2   38.7   35.5  30.086  0.00  0.00     0     0.00      0     0.0  0.00   0.0   0.167   0.000   66.7    48   46.4   65.0   8.92  .0750    0.000   211    5    100.0   10 
12/15/19  1:20a   41.1   41.1   40.9    66   30.6   4.0    SE   0.67  10.0   ESE   38.6   40.4   37.9   34.7  30.088  0.00  0.00     0     0.00      0     0.0  0.00   0.0   0.166   0.000   66.6    48   46.3   64.9   8.92  .0750    0.000   211    5    100.0   10 
12/15/19  1:30a   40.7   41.1   40.7    65   29.8   6.0   ESE   1.00  13.0     E   36.6   40.0   35.9   32.6  30.089  0.00  0.00     0     0.00      0     0.0  0.00   0.0   0.169   0.000   66.5    48   46.2   64.8   8.92  .0751    0.000   212    5    100.0   10 
12/15/19  1:40a   40.9   40.9   40.7    66   30.4   6.0   ESE   1.00  11.0     E   36.8   40.2   36.1   32.9  30.094  0.00  0.00     0     0.00      0     0.0  0.00   0.0   0.167   0.000   66.5    48   46.2   64.8   8.92  .0751    0.000   212    5    100.0   10 
12/15/19  1:50a   40.7   40.9   40.7    65   29.8   6.0   ESE   1.00  12.0     E   36.6   40.0   35.9   32.6  30.099  0.00  0.00     0     0.00      0     0.0  0.00   0.0   0.169   0.000   66.4    48   46.1   64.7   8.92  .0751    0.000   213    5    100.0   10 
12/15/19  2:00a   40.5   40.7   40.5    66   30.0   6.0   ESE   1.00  12.0    SE   36.3   39.8   35.6   32.4  30.102  0.00  0.00     0     0.00      0     0.0  0.00   0.0   0.170   0.000   66.4    48   46.1   64.7   8.92  .0751    0.001   209    5    100.0   10 
12/15/19  2:10a   40.5   40.6   40.5    66   30.0   6.0   ESE   1.00  11.0   ESE   36.3   39.8   35.6   32.4  30.103  0.00  0.00     0     0.00      0     0.0  0.00   0.0   0.170   0.000   66.3    48   46.0   64.6   8.92  .0751    0.000   213    5    100.0   10 
12/15/19  2:20a   40.6   40.6   40.5    66   30.1   6.0   ESE   1.00  11.0   SSE   36.5   39.9   35.8   32.6  30.108  0.00  0.00     0     0.00      0     0.0  0.00   0.0   0.169   0.000   66.3    48   46.0   64.6   8.92  .0751    0.000   212    5    100.0   10 
12/15/19  2:30a   40.8   40.9   40.6    66   30.3   5.0   ESE   0.83  11.0   ESE   37.4   40.1   36.7   33.5  30.111  0.00  0.00     0     0.00      0     0.0  0.00   0.0   0.168   0.000   66.2    47   45.4   64.3   8.83  .0752    0.000   213    5    100.0   10 
12/15/19  2:40a   40.9   40.9   40.8    66   30.4   5.0   ESE   0.83   9.0    SE   37.5   40.2   36.8   33.6  30.114  0.00  0.00     0     0.00      0     0.0  0.00   0.0   0.167   0.000   66.1    47   45.3   64.2   8.83  .0752    0.000   211    5    100.0   10 
Email: AdamSPAM@StormwatchersRetreat.com (To send me email remove the word 'SPAM' from my email address.)